logo
Search for airport 
image banner adimage banner adimage banner ad
image banner ad

FLKM - Kalumbila

Located in , Zambia

ICAO - , IATA -

Data provided by Airmate  

General information

Coordinates: S12°15'15" E25°26'15"
Elevation is 4366 feet MSL.
Magnetic variation is -3° East
View others Airports in North-Western Province

Operational data

Special qualification required
Current time UTC:
Current local time:
Weather at : - ( 0 km )
METAR: SAZM 131600Z 14008KT 9999 OVC020 15/12 Q1026
View NOTAMs / SUP AIP / TFR affecting this airport [VIEW]
Communications frequencies: [VIEW]

Runways:

RWY identifierQFULength (ft)Width (ft)SurfaceLDA (ft)
1095°8556120ASPH
28275°8556120ASPH

Airport contact information

Address: Zambia

Satellite view of FLKM